sensor_id;sensor_type;location;lat;lon;timestamp;P1;durP1;ratioP1;P2;durP2;ratioP2
41881;SDS011;27562;47.524;12.404;2024-03-25T00:00:31;2.88;;;1.00;;
41881;SDS011;27562;47.524;12.404;2024-03-25T00:02:57;1.95;;;1.00;;
41881;SDS011;27562;47.524;12.404;2024-03-25T00:05:23;2.88;;;0.93;;
41881;SDS011;27562;47.524;12.404;2024-03-25T00:07:50;1.83;;;0.85;;
41881;SDS011;27562;47.524;12.404;2024-03-25T00:10:17;1.55;;;0.88;;
41881;SDS011;27562;47.524;12.404;2024-03-25T00:12:45;1.25;;;0.80;;
41881;SDS011;27562;47.524;12.404;2024-03-25T00:15:12;2.72;;;0.85;;
41881;SDS011;27562;47.524;12.404;2024-03-25T00:17:37;1.70;;;0.90;;
41881;SDS011;27562;47.524;12.404;2024-03-25T00:20:03;2.03;;;0.90;;
41881;SDS011;27562;47.524;12.404;2024-03-25T00:22:34;1.77;;;1.00;;
41881;SDS011;27562;47.524;12.404;2024-03-25T00:24:59;1.65;;;0.90;;
41881;SDS011;27562;47.524;12.404;2024-03-25T00:27:25;2.47;;;0.93;;
41881;SDS011;27562;47.524;12.404;2024-03-25T00:29:51;1.02;;;0.73;;
41881;SDS011;27562;47.524;12.404;2024-03-25T00:32:17;2.15;;;1.05;;
41881;SDS011;27562;47.524;12.404;2024-03-25T00:34:42;2.97;;;0.85;;
41881;SDS011;27562;47.524;12.404;2024-03-25T00:37:08;1.38;;;0.77;;
41881;SDS011;27562;47.524;12.404;2024-03-25T00:39:34;2.15;;;0.93;;
41881;SDS011;27562;47.524;12.404;2024-03-25T00:42:00;1.90;;;0.90;;
41881;SDS011;27562;47.524;12.404;2024-03-25T00:44:25;2.42;;;0.95;;
41881;SDS011;27562;47.524;12.404;2024-03-25T00:46:51;2.42;;;0.85;;
41881;SDS011;27562;47.524;12.404;2024-03-25T00:49:17;1.35;;;0.70;;
41881;SDS011;27562;47.524;12.404;2024-03-25T00:51:43;1.80;;;0.70;;
41881;SDS011;27562;47.524;12.404;2024-03-25T00:54:09;2.30;;;0.82;;
41881;SDS011;27562;47.524;12.404;2024-03-25T00:56:34;1.25;;;0.80;;
41881;SDS011;27562;47.524;12.404;2024-03-25T00:59:00;1.60;;;0.90;;
41881;SDS011;27562;47.524;12.404;2024-03-25T01:01:31;1.98;;;1.10;;
41881;SDS011;27562;47.524;12.404;2024-03-25T01:03:58;3.83;;;1.20;;
41881;SDS011;27562;47.524;12.404;2024-03-25T01:06:24;2.92;;;1.63;;
41881;SDS011;27562;47.524;12.404;2024-03-25T01:08:49;2.58;;;1.00;;
41881;SDS011;27562;47.524;12.404;2024-03-25T01:11:15;1.35;;;0.93;;
41881;SDS011;27562;47.524;12.404;2024-03-25T01:13:41;2.58;;;1.15;;
41881;SDS011;27562;47.524;12.404;2024-03-25T01:16:07;1.77;;;0.90;;
41881;SDS011;27562;47.524;12.404;2024-03-25T01:18:33;1.58;;;1.00;;
41881;SDS011;27562;47.524;12.404;2024-03-25T01:20:59;1.13;;;0.68;;
41881;SDS011;27562;47.524;12.404;2024-03-25T01:23:25;1.17;;;0.77;;
41881;SDS011;27562;47.524;12.404;2024-03-25T01:25:51;2.03;;;0.85;;
41881;SDS011;27562;47.524;12.404;2024-03-25T01:28:16;2.05;;;0.93;;
41881;SDS011;27562;47.524;12.404;2024-03-25T01:30:42;2.67;;;0.90;;
41881;SDS011;27562;47.524;12.404;2024-03-25T01:33:08;1.55;;;0.65;;
41881;SDS011;27562;47.524;12.404;2024-03-25T01:35:34;1.33;;;0.68;;
41881;SDS011;27562;47.524;12.404;2024-03-25T01:38:00;1.58;;;0.60;;
41881;SDS011;27562;47.524;12.404;2024-03-25T01:40:26;2.92;;;0.90;;
41881;SDS011;27562;47.524;12.404;2024-03-25T01:43:01;2.47;;;0.60;;
41881;SDS011;27562;47.524;12.404;2024-03-25T01:45:32;1.20;;;0.77;;
41881;SDS011;27562;47.524;12.404;2024-03-25T01:48:01;1.17;;;0.70;;
41881;SDS011;27562;47.524;12.404;2024-03-25T01:50:29;1.65;;;0.68;;
41881;SDS011;27562;47.524;12.404;2024-03-25T01:52:58;1.15;;;0.60;;
41881;SDS011;27562;47.524;12.404;2024-03-25T01:55:26;1.60;;;0.77;;
41881;SDS011;27562;47.524;12.404;2024-03-25T01:57:54;0.80;;;0.60;;
41881;SDS011;27562;47.524;12.404;2024-03-25T02:00:21;2.45;;;1.00;;
41881;SDS011;27562;47.524;12.404;2024-03-25T02:02:49;1.40;;;0.90;;
41881;SDS011;27562;47.524;12.404;2024-03-25T02:05:16;0.88;;;0.50;;
41881;SDS011;27562;47.524;12.404;2024-03-25T02:07:43;1.52;;;0.80;;
41881;SDS011;27562;47.524;12.404;2024-03-25T02:10:10;1.23;;;0.75;;
41881;SDS011;27562;47.524;12.404;2024-03-25T02:12:36;1.35;;;0.80;;
41881;SDS011;27562;47.524;12.404;2024-03-25T02:15:04;2.17;;;1.00;;
41881;SDS011;27562;47.524;12.404;2024-03-25T02:17:30;1.67;;;0.90;;
41881;SDS011;27562;47.524;12.404;2024-03-25T02:19:56;1.40;;;0.90;;
41881;SDS011;27562;47.524;12.404;2024-03-25T02:22:22;2.10;;;0.98;;
41881;SDS011;27562;47.524;12.404;2024-03-25T02:24:49;2.78;;;1.00;;
41881;SDS011;27562;47.524;12.404;2024-03-25T02:27:17;1.40;;;0.80;;
41881;SDS011;27562;47.524;12.404;2024-03-25T02:29:43;1.60;;;0.70;;
41881;SDS011;27562;47.524;12.404;2024-03-25T02:32:11;1.52;;;0.82;;
41881;SDS011;27562;47.524;12.404;2024-03-25T02:34:38;1.90;;;1.10;;
41881;SDS011;27562;47.524;12.404;2024-03-25T02:37:06;2.90;;;1.30;;
41881;SDS011;27562;47.524;12.404;2024-03-25T02:39:32;2.80;;;1.45;;
41881;SDS011;27562;47.524;12.404;2024-03-25T02:41:59;2.40;;;1.25;;
41881;SDS011;27562;47.524;12.404;2024-03-25T02:44:25;1.98;;;1.02;;
41881;SDS011;27562;47.524;12.404;2024-03-25T02:46:51;1.63;;;0.88;;
41881;SDS011;27562;47.524;12.404;2024-03-25T02:49:17;2.28;;;1.10;;
41881;SDS011;27562;47.524;12.404;2024-03-25T02:51:43;2.60;;;1.00;;
41881;SDS011;27562;47.524;12.404;2024-03-25T02:54:09;2.15;;;1.23;;
41881;SDS011;27562;47.524;12.404;2024-03-25T02:56:34;1.85;;;0.80;;
41881;SDS011;27562;47.524;12.404;2024-03-25T02:59:00;1.85;;;1.00;;
41881;SDS011;27562;47.524;12.404;2024-03-25T03:01:26;3.80;;;0.95;;
41881;SDS011;27562;47.524;12.404;2024-03-25T03:03:52;3.13;;;1.00;;
41881;SDS011;27562;47.524;12.404;2024-03-25T03:06:18;1.77;;;1.00;;
41881;SDS011;27562;47.524;12.404;2024-03-25T03:08:44;1.85;;;1.00;;
41881;SDS011;27562;47.524;12.404;2024-03-25T03:11:10;2.55;;;1.08;;
41881;SDS011;27562;47.524;12.404;2024-03-25T03:13:35;1.60;;;0.88;;
41881;SDS011;27562;47.524;12.404;2024-03-25T03:16:01;1.42;;;0.80;;
41881;SDS011;27562;47.524;12.404;2024-03-25T03:18:27;2.00;;;0.88;;
41881;SDS011;27562;47.524;12.404;2024-03-25T03:20:53;0.75;;;0.55;;
41881;SDS011;27562;47.524;12.404;2024-03-25T03:23:22;1.35;;;0.77;;
41881;SDS011;27562;47.524;12.404;2024-03-25T03:25:48;2.55;;;0.65;;
41881;SDS011;27562;47.524;12.404;2024-03-25T03:28:14;2.00;;;0.80;;
41881;SDS011;27562;47.524;12.404;2024-03-25T03:30:40;3.05;;;0.90;;
41881;SDS011;27562;47.524;12.404;2024-03-25T03:33:06;1.67;;;0.85;;
41881;SDS011;27562;47.524;12.404;2024-03-25T03:35:32;1.55;;;0.70;;
41881;SDS011;27562;47.524;12.404;2024-03-25T03:37:58;1.50;;;0.73;;
41881;SDS011;27562;47.524;12.404;2024-03-25T03:40:24;2.25;;;0.95;;
41881;SDS011;27562;47.524;12.404;2024-03-25T03:42:50;3.40;;;0.80;;
41881;SDS011;27562;47.524;12.404;2024-03-25T03:45:15;1.02;;;0.70;;
41881;SDS011;27562;47.524;12.404;2024-03-25T03:47:41;1.02;;;0.65;;
41881;SDS011;27562;47.524;12.404;2024-03-25T03:50:07;1.67;;;0.80;;
41881;SDS011;27562;47.524;12.404;2024-03-25T03:52:33;2.92;;;0.95;;
41881;SDS011;27562;47.524;12.404;2024-03-25T03:54:58;2.03;;;0.75;;
41881;SDS011;27562;47.524;12.404;2024-03-25T03:57:25;2.05;;;0.80;;
41881;SDS011;27562;47.524;12.404;2024-03-25T03:59:53;1.63;;;0.73;;
41881;SDS011;27562;47.524;12.404;2024-03-25T04:02:19;1.38;;;0.70;;
41881;SDS011;27562;47.524;12.404;2024-03-25T04:04:45;2.47;;;0.80;;
41881;SDS011;27562;47.524;12.404;2024-03-25T04:07:11;1.25;;;0.60;;
41881;SDS011;27562;47.524;12.404;2024-03-25T04:09:37;2.75;;;0.75;;
41881;SDS011;27562;47.524;12.404;2024-03-25T04:12:02;2.05;;;0.90;;
41881;SDS011;27562;47.524;12.404;2024-03-25T04:14:28;1.50;;;0.90;;
41881;SDS011;27562;47.524;12.404;2024-03-25T04:16:54;2.35;;;1.40;;
41881;SDS011;27562;47.524;12.404;2024-03-25T04:19:23;2.88;;;1.42;;
41881;SDS011;27562;47.524;12.404;2024-03-25T04:21:49;5.63;;;2.88;;
41881;SDS011;27562;47.524;12.404;2024-03-25T04:24:14;13.38;;;4.93;;
41881;SDS011;27562;47.524;12.404;2024-03-25T04:26:40;26.52;;;10.05;;
41881;SDS011;27562;47.524;12.404;2024-03-25T04:29:06;25.92;;;11.02;;
41881;SDS011;27562;47.524;12.404;2024-03-25T04:31:31;31.80;;;13.50;;
41881;SDS011;27562;47.524;12.404;2024-03-25T04:33:57;27.98;;;13.30;;
41881;SDS011;27562;47.524;12.404;2024-03-25T04:36:22;23.58;;;12.02;;
41881;SDS011;27562;47.524;12.404;2024-03-25T04:38:48;20.08;;;9.93;;
41881;SDS011;27562;47.524;12.404;2024-03-25T04:41:14;9.55;;;4.65;;
41881;SDS011;27562;47.524;12.404;2024-03-25T04:43:40;7.32;;;3.47;;
41881;SDS011;27562;47.524;12.404;2024-03-25T04:46:06;2.10;;;1.05;;
41881;SDS011;27562;47.524;12.404;2024-03-25T04:48:32;1.88;;;1.10;;
41881;SDS011;27562;47.524;12.404;2024-03-25T04:50:57;3.15;;;1.00;;
41881;SDS011;27562;47.524;12.404;2024-03-25T04:53:23;3.13;;;1.02;;
41881;SDS011;27562;47.524;12.404;2024-03-25T04:55:49;1.90;;;1.35;;
41881;SDS011;27562;47.524;12.404;2024-03-25T04:58:14;3.42;;;1.55;;
41881;SDS011;27562;47.524;12.404;2024-03-25T05:00:40;3.17;;;1.58;;
41881;SDS011;27562;47.524;12.404;2024-03-25T05:03:06;3.22;;;1.85;;
41881;SDS011;27562;47.524;12.404;2024-03-25T05:05:31;1.98;;;1.13;;
41881;SDS011;27562;47.524;12.404;2024-03-25T05:07:57;2.45;;;1.20;;
41881;SDS011;27562;47.524;12.404;2024-03-25T05:10:23;3.45;;;1.05;;
41881;SDS011;27562;47.524;12.404;2024-03-25T05:12:48;2.72;;;1.17;;
41881;SDS011;27562;47.524;12.404;2024-03-25T05:15:14;2.13;;;1.20;;
41881;SDS011;27562;47.524;12.404;2024-03-25T05:17:40;2.85;;;1.25;;
41881;SDS011;27562;47.524;12.404;2024-03-25T05:20:06;3.13;;;1.27;;
41881;SDS011;27562;47.524;12.404;2024-03-25T05:22:32;3.38;;;0.95;;
41881;SDS011;27562;47.524;12.404;2024-03-25T05:24:58;2.00;;;1.00;;
41881;SDS011;27562;47.524;12.404;2024-03-25T05:27:24;1.75;;;1.10;;
41881;SDS011;27562;47.524;12.404;2024-03-25T05:29:49;2.22;;;1.00;;
41881;SDS011;27562;47.524;12.404;2024-03-25T05:32:15;1.95;;;0.82;;
41881;SDS011;27562;47.524;12.404;2024-03-25T05:34:46;2.78;;;1.08;;
41881;SDS011;27562;47.524;12.404;2024-03-25T05:37:13;1.92;;;1.00;;
41881;SDS011;27562;47.524;12.404;2024-03-25T05:39:39;1.48;;;0.80;;
41881;SDS011;27562;47.524;12.404;2024-03-25T05:42:04;2.08;;;0.98;;
41881;SDS011;27562;47.524;12.404;2024-03-25T05:44:31;3.83;;;1.63;;
41881;SDS011;27562;47.524;12.404;2024-03-25T05:46:56;5.10;;;2.22;;
41881;SDS011;27562;47.524;12.404;2024-03-25T05:49:22;5.80;;;2.17;;
41881;SDS011;27562;47.524;12.404;2024-03-25T05:51:48;3.65;;;1.90;;
41881;SDS011;27562;47.524;12.404;2024-03-25T05:54:13;3.22;;;2.00;;
41881;SDS011;27562;47.524;12.404;2024-03-25T05:56:39;3.00;;;1.90;;
41881;SDS011;27562;47.524;12.404;2024-03-25T05:59:05;4.20;;;2.42;;
41881;SDS011;27562;47.524;12.404;2024-03-25T06:01:31;5.10;;;2.40;;
41881;SDS011;27562;47.524;12.404;2024-03-25T06:03:56;3.40;;;2.13;;
41881;SDS011;27562;47.524;12.404;2024-03-25T06:06:22;4.00;;;2.00;;
41881;SDS011;27562;47.524;12.404;2024-03-25T06:08:48;2.72;;;1.55;;
41881;SDS011;27562;47.524;12.404;2024-03-25T06:11:15;3.58;;;1.38;;
41881;SDS011;27562;47.524;12.404;2024-03-25T06:13:45;2.13;;;1.40;;
41881;SDS011;27562;47.524;12.404;2024-03-25T06:16:12;2.75;;;1.67;;
41881;SDS011;27562;47.524;12.404;2024-03-25T06:18:38;3.83;;;2.00;;
41881;SDS011;27562;47.524;12.404;2024-03-25T06:21:05;4.03;;;2.30;;
41881;SDS011;27562;47.524;12.404;2024-03-25T06:23:31;3.72;;;2.03;;
41881;SDS011;27562;47.524;12.404;2024-03-25T06:25:56;3.78;;;2.40;;
41881;SDS011;27562;47.524;12.404;2024-03-25T06:28:22;4.38;;;2.45;;
41881;SDS011;27562;47.524;12.404;2024-03-25T06:30:48;4.88;;;2.53;;
41881;SDS011;27562;47.524;12.404;2024-03-25T06:33:33;4.22;;;2.20;;
41881;SDS011;27562;47.524;12.404;2024-03-25T06:36:18;4.75;;;2.55;;
41881;SDS011;27562;47.524;12.404;2024-03-25T06:38:44;3.13;;;1.75;;
41881;SDS011;27562;47.524;12.404;2024-03-25T06:41:10;4.32;;;2.35;;
41881;SDS011;27562;47.524;12.404;2024-03-25T06:43:36;3.75;;;2.00;;
41881;SDS011;27562;47.524;12.404;2024-03-25T06:46:05;3.40;;;1.75;;
41881;SDS011;27562;47.524;12.404;2024-03-25T06:48:32;3.72;;;1.60;;
41881;SDS011;27562;47.524;12.404;2024-03-25T06:50:59;3.80;;;1.75;;
41881;SDS011;27562;47.524;12.404;2024-03-25T06:53:27;3.22;;;1.80;;
41881;SDS011;27562;47.524;12.404;2024-03-25T06:55:54;5.68;;;2.17;;
41881;SDS011;27562;47.524;12.404;2024-03-25T06:58:21;3.45;;;1.88;;
41881;SDS011;27562;47.524;12.404;2024-03-25T07:00:47;3.20;;;1.90;;
41881;SDS011;27562;47.524;12.404;2024-03-25T07:03:14;4.05;;;2.17;;
41881;SDS011;27562;47.524;12.404;2024-03-25T07:05:41;2.75;;;1.80;;
41881;SDS011;27562;47.524;12.404;2024-03-25T07:08:06;3.17;;;1.70;;
41881;SDS011;27562;47.524;12.404;2024-03-25T07:10:32;6.30;;;2.65;;
41881;SDS011;27562;47.524;12.404;2024-03-25T07:12:58;5.43;;;2.65;;
41881;SDS011;27562;47.524;12.404;2024-03-25T07:15:24;3.00;;;1.60;;
41881;SDS011;27562;47.524;12.404;2024-03-25T07:17:50;4.65;;;1.77;;
41881;SDS011;27562;47.524;12.404;2024-03-25T07:20:16;4.40;;;2.03;;
41881;SDS011;27562;47.524;12.404;2024-03-25T07:22:41;3.13;;;1.63;;
41881;SDS011;27562;47.524;12.404;2024-03-25T07:25:07;4.03;;;1.70;;
41881;SDS011;27562;47.524;12.404;2024-03-25T07:27:34;3.13;;;1.60;;
41881;SDS011;27562;47.524;12.404;2024-03-25T07:30:00;3.55;;;1.67;;
41881;SDS011;27562;47.524;12.404;2024-03-25T07:32:26;2.63;;;1.50;;
41881;SDS011;27562;47.524;12.404;2024-03-25T07:34:51;4.20;;;1.50;;
41881;SDS011;27562;47.524;12.404;2024-03-25T07:37:17;6.10;;;1.73;;
41881;SDS011;27562;47.524;12.404;2024-03-25T07:39:42;3.63;;;1.60;;
41881;SDS011;27562;47.524;12.404;2024-03-25T07:42:10;2.88;;;1.63;;
41881;SDS011;27562;47.524;12.404;2024-03-25T07:44:36;3.78;;;1.60;;
41881;SDS011;27562;47.524;12.404;2024-03-25T07:47:02;3.50;;;1.60;;
41881;SDS011;27562;47.524;12.404;2024-03-25T07:49:27;2.50;;;1.10;;
41881;SDS011;27562;47.524;12.404;2024-03-25T07:51:53;3.50;;;1.50;;
41881;SDS011;27562;47.524;12.404;2024-03-25T07:54:18;2.97;;;1.33;;
41881;SDS011;27562;47.524;12.404;2024-03-25T07:56:45;4.00;;;1.48;;
41881;SDS011;27562;47.524;12.404;2024-03-25T07:59:10;4.00;;;1.90;;
41881;SDS011;27562;47.524;12.404;2024-03-25T08:01:36;7.30;;;1.30;;
41881;SDS011;27562;47.524;12.404;2024-03-25T08:04:03;3.95;;;1.52;;
41881;SDS011;27562;47.524;12.404;2024-03-25T08:06:29;3.50;;;1.80;;
41881;SDS011;27562;47.524;12.404;2024-03-25T08:08:54;2.45;;;1.20;;
41881;SDS011;27562;47.524;12.404;2024-03-25T08:11:20;3.30;;;1.23;;
41881;SDS011;27562;47.524;12.404;2024-03-25T08:13:46;1.77;;;1.00;;
41881;SDS011;27562;47.524;12.404;2024-03-25T08:16:11;1.88;;;1.15;;
41881;SDS011;27562;47.524;12.404;2024-03-25T08:18:37;2.88;;;1.13;;
41881;SDS011;27562;47.524;12.404;2024-03-25T08:21:03;2.92;;;1.40;;
41881;SDS011;27562;47.524;12.404;2024-03-25T08:23:28;3.35;;;1.50;;
41881;SDS011;27562;47.524;12.404;2024-03-25T08:25:54;3.08;;;1.30;;
41881;SDS011;27562;47.524;12.404;2024-03-25T08:28:20;2.45;;;1.33;;
41881;SDS011;27562;47.524;12.404;2024-03-25T08:30:46;2.42;;;1.02;;
41881;SDS011;27562;47.524;12.404;2024-03-25T08:33:11;2.15;;;0.90;;
41881;SDS011;27562;47.524;12.404;2024-03-25T08:35:37;2.53;;;1.40;;
41881;SDS011;27562;47.524;12.404;2024-03-25T08:38:03;2.47;;;1.00;;
41881;SDS011;27562;47.524;12.404;2024-03-25T08:40:29;1.60;;;0.93;;
41881;SDS011;27562;47.524;12.404;2024-03-25T08:42:54;3.85;;;0.80;;
41881;SDS011;27562;47.524;12.404;2024-03-25T08:45:20;2.15;;;1.15;;
41881;SDS011;27562;47.524;12.404;2024-03-25T08:47:46;2.53;;;0.95;;
41881;SDS011;27562;47.524;12.404;2024-03-25T08:50:11;0.82;;;0.68;;
41881;SDS011;27562;47.524;12.404;2024-03-25T08:52:37;2.15;;;0.98;;
41881;SDS011;27562;47.524;12.404;2024-03-25T08:55:05;2.05;;;0.93;;
41881;SDS011;27562;47.524;12.404;2024-03-25T08:57:31;2.45;;;0.95;;
41881;SDS011;27562;47.524;12.404;2024-03-25T08:59:57;2.97;;;1.13;;
41881;SDS011;27562;47.524;12.404;2024-03-25T09:02:22;2.13;;;0.90;;
41881;SDS011;27562;47.524;12.404;2024-03-25T09:04:48;1.83;;;0.77;;
41881;SDS011;27562;47.524;12.404;2024-03-25T09:07:14;2.40;;;0.90;;
41881;SDS011;27562;47.524;12.404;2024-03-25T09:09:40;1.90;;;0.82;;
41881;SDS011;27562;47.524;12.404;2024-03-25T09:12:24;0.90;;;0.63;;
41881;SDS011;27562;47.524;12.404;2024-03-25T09:14:49;2.33;;;0.90;;
41881;SDS011;27562;47.524;12.404;2024-03-25T09:17:16;2.15;;;0.90;;
41881;SDS011;27562;47.524;12.404;2024-03-25T09:19:42;1.70;;;1.30;;
41881;SDS011;27562;47.524;12.404;2024-03-25T09:22:08;2.63;;;0.90;;
41881;SDS011;27562;47.524;12.404;2024-03-25T09:24:33;1.70;;;0.85;;
41881;SDS011;27562;47.524;12.404;2024-03-25T09:26:59;3.80;;;1.02;;
41881;SDS011;27562;47.524;12.404;2024-03-25T09:29:25;2.38;;;0.70;;
41881;SDS011;27562;47.524;12.404;2024-03-25T09:31:50;2.72;;;0.70;;
41881;SDS011;27562;47.524;12.404;2024-03-25T09:34:16;1.50;;;0.90;;
41881;SDS011;27562;47.524;12.404;2024-03-25T09:36:42;1.77;;;0.85;;
41881;SDS011;27562;47.524;12.404;2024-03-25T09:39:07;2.92;;;1.08;;
41881;SDS011;27562;47.524;12.404;2024-03-25T09:41:34;1.98;;;0.70;;
41881;SDS011;27562;47.524;12.404;2024-03-25T09:44:01;1.63;;;0.70;;
41881;SDS011;27562;47.524;12.404;2024-03-25T09:46:30;4.13;;;0.70;;
41881;SDS011;27562;47.524;12.404;2024-03-25T09:48:56;2.70;;;0.60;;
41881;SDS011;27562;47.524;12.404;2024-03-25T09:51:21;0.95;;;0.45;;
41881;SDS011;27562;47.524;12.404;2024-03-25T09:53:47;2.00;;;0.60;;
41881;SDS011;27562;47.524;12.404;2024-03-25T09:56:13;1.50;;;0.47;;
41881;SDS011;27562;47.524;12.404;2024-03-25T09:58:40;1.90;;;0.77;;
41881;SDS011;27562;47.524;12.404;2024-03-25T10:01:09;2.28;;;0.80;;
41881;SDS011;27562;47.524;12.404;2024-03-25T10:03:35;3.15;;;1.33;;
41881;SDS011;27562;47.524;12.404;2024-03-25T10:06:00;3.45;;;1.30;;
41881;SDS011;27562;47.524;12.404;2024-03-25T10:08:26;2.08;;;1.10;;
41881;SDS011;27562;47.524;12.404;2024-03-25T10:10:55;1.33;;;0.57;;
41881;SDS011;27562;47.524;12.404;2024-03-25T10:13:21;3.33;;;0.90;;
41881;SDS011;27562;47.524;12.404;2024-03-25T10:15:51;1.23;;;0.50;;
41881;SDS011;27562;47.524;12.404;2024-03-25T10:18:16;1.80;;;0.65;;
41881;SDS011;27562;47.524;12.404;2024-03-25T10:20:51;2.53;;;0.75;;
41881;SDS011;27562;47.524;12.404;2024-03-25T10:23:24;2.63;;;1.30;;
41881;SDS011;27562;47.524;12.404;2024-03-25T10:25:54;2.75;;;0.93;;
41881;SDS011;27562;47.524;12.404;2024-03-25T10:28:20;3.15;;;0.98;;
41881;SDS011;27562;47.524;12.404;2024-03-25T10:30:46;1.65;;;0.60;;
41881;SDS011;27562;47.524;12.404;2024-03-25T10:33:12;0.98;;;0.50;;
41881;SDS011;27562;47.524;12.404;2024-03-25T10:35:38;1.10;;;0.57;;
41881;SDS011;27562;47.524;12.404;2024-03-25T10:38:06;1.48;;;0.60;;
41881;SDS011;27562;47.524;12.404;2024-03-25T10:40:33;2.22;;;0.60;;
41881;SDS011;27562;47.524;12.404;2024-03-25T10:43:07;1.60;;;0.60;;
41881;SDS011;27562;47.524;12.404;2024-03-25T10:45:37;2.08;;;0.65;;
41881;SDS011;27562;47.524;12.404;2024-03-25T10:48:09;1.55;;;0.60;;
41881;SDS011;27562;47.524;12.404;2024-03-25T10:50:38;2.10;;;0.77;;
41881;SDS011;27562;47.524;12.404;2024-03-25T10:53:05;1.20;;;0.60;;
41881;SDS011;27562;47.524;12.404;2024-03-25T10:55:33;1.63;;;0.60;;
41881;SDS011;27562;47.524;12.404;2024-03-25T10:58:01;1.60;;;0.50;;
41881;SDS011;27562;47.524;12.404;2024-03-25T11:00:28;1.60;;;0.60;;
41881;SDS011;27562;47.524;12.404;2024-03-25T11:02:54;0.95;;;0.50;;
41881;SDS011;27562;47.524;12.404;2024-03-25T11:05:21;2.15;;;0.60;;
41881;SDS011;27562;47.524;12.404;2024-03-25T11:07:47;2.85;;;0.60;;
41881;SDS011;27562;47.524;12.404;2024-03-25T11:10:13;1.60;;;0.60;;
41881;SDS011;27562;47.524;12.404;2024-03-25T11:12:40;0.85;;;0.43;;
41881;SDS011;27562;47.524;12.404;2024-03-25T11:15:07;0.93;;;0.57;;
41881;SDS011;27562;47.524;12.404;2024-03-25T11:17:34;1.27;;;0.60;;
41881;SDS011;27562;47.524;12.404;2024-03-25T11:20:09;3.05;;;0.70;;
41881;SDS011;27562;47.524;12.404;2024-03-25T11:22:46;1.38;;;0.60;;
41881;SDS011;27562;47.524;12.404;2024-03-25T11:25:15;1.35;;;0.70;;
41881;SDS011;27562;47.524;12.404;2024-03-25T11:27:42;1.15;;;0.70;;
41881;SDS011;27562;47.524;12.404;2024-03-25T11:30:13;1.63;;;0.70;;
41881;SDS011;27562;47.524;12.404;2024-03-25T11:32:46;2.25;;;0.52;;
41881;SDS011;27562;47.524;12.404;2024-03-25T11:37:47;3.28;;;0.52;;
41881;SDS011;27562;47.524;12.404;2024-03-25T11:40:15;0.85;;;0.50;;
41881;SDS011;27562;47.524;12.404;2024-03-25T11:42:44;0.77;;;0.32;;
41881;SDS011;27562;47.524;12.404;2024-03-25T11:45:15;2.85;;;0.50;;
41881;SDS011;27562;47.524;12.404;2024-03-25T11:47:48;1.08;;;0.40;;
41881;SDS011;27562;47.524;12.404;2024-03-25T11:50:15;1.58;;;0.40;;
41881;SDS011;27562;47.524;12.404;2024-03-25T11:52:42;0.88;;;0.40;;
41881;SDS011;27562;47.524;12.404;2024-03-25T11:55:08;1.23;;;0.43;;
41881;SDS011;27562;47.524;12.404;2024-03-25T11:57:35;1.02;;;0.32;;
41881;SDS011;27562;47.524;12.404;2024-03-25T12:00:02;1.23;;;0.40;;
41881;SDS011;27562;47.524;12.404;2024-03-25T12:02:30;2.38;;;0.80;;
41881;SDS011;27562;47.524;12.404;2024-03-25T12:04:56;1.25;;;0.50;;
41881;SDS011;27562;47.524;12.404;2024-03-25T12:07:22;1.88;;;0.52;;
41881;SDS011;27562;47.524;12.404;2024-03-25T12:09:48;2.15;;;0.57;;
41881;SDS011;27562;47.524;12.404;2024-03-25T12:12:32;1.42;;;0.60;;
41881;SDS011;27562;47.524;12.404;2024-03-25T12:14:59;0.65;;;0.38;;
41881;SDS011;27562;47.524;12.404;2024-03-25T12:17:27;3.08;;;0.40;;
41881;SDS011;27562;47.524;12.404;2024-03-25T12:20:04;0.73;;;0.43;;
41881;SDS011;27562;47.524;12.404;2024-03-25T12:22:31;1.08;;;0.50;;
41881;SDS011;27562;47.524;12.404;2024-03-25T12:24:58;1.92;;;0.47;;
41881;SDS011;27562;47.524;12.404;2024-03-25T12:27:24;1.65;;;0.50;;
41881;SDS011;27562;47.524;12.404;2024-03-25T12:29:57;1.55;;;0.40;;
41881;SDS011;27562;47.524;12.404;2024-03-25T12:32:30;0.88;;;0.60;;
41881;SDS011;27562;47.524;12.404;2024-03-25T12:35:09;1.63;;;0.45;;
41881;SDS011;27562;47.524;12.404;2024-03-25T12:37:40;2.72;;;0.90;;
41881;SDS011;27562;47.524;12.404;2024-03-25T12:40:06;1.10;;;0.40;;
41881;SDS011;27562;47.524;12.404;2024-03-25T12:42:34;0.82;;;0.50;;
41881;SDS011;27562;47.524;12.404;2024-03-25T12:45:00;0.77;;;0.40;;
41881;SDS011;27562;47.524;12.404;2024-03-25T12:47:25;1.00;;;0.50;;
41881;SDS011;27562;47.524;12.404;2024-03-25T12:49:52;1.15;;;0.50;;
41881;SDS011;27562;47.524;12.404;2024-03-25T12:52:17;1.60;;;0.73;;
41881;SDS011;27562;47.524;12.404;2024-03-25T12:54:43;0.63;;;0.32;;
41881;SDS011;27562;47.524;12.404;2024-03-25T12:57:09;1.30;;;0.45;;
41881;SDS011;27562;47.524;12.404;2024-03-25T12:59:36;0.68;;;0.38;;
41881;SDS011;27562;47.524;12.404;2024-03-25T13:02:02;1.30;;;0.40;;
41881;SDS011;27562;47.524;12.404;2024-03-25T13:04:27;1.40;;;0.40;;
41881;SDS011;27562;47.524;12.404;2024-03-25T13:06:53;0.80;;;0.40;;
41881;SDS011;27562;47.524;12.404;2024-03-25T13:09:28;1.73;;;0.60;;
41881;SDS011;27562;47.524;12.404;2024-03-25T13:11:55;1.60;;;0.68;;
41881;SDS011;27562;47.524;12.404;2024-03-25T13:14:21;0.88;;;0.40;;
41881;SDS011;27562;47.524;12.404;2024-03-25T13:16:47;1.10;;;0.50;;
41881;SDS011;27562;47.524;12.404;2024-03-25T13:19:14;0.90;;;0.38;;
41881;SDS011;27562;47.524;12.404;2024-03-25T13:21:39;1.40;;;0.30;;
41881;SDS011;27562;47.524;12.404;2024-03-25T13:24:05;2.50;;;0.52;;
41881;SDS011;27562;47.524;12.404;2024-03-25T13:26:31;1.85;;;0.45;;
41881;SDS011;27562;47.524;12.404;2024-03-25T13:28:57;0.20;;;0.20;;
41881;SDS011;27562;47.524;12.404;2024-03-25T13:31:23;0.85;;;0.32;;
41881;SDS011;27562;47.524;12.404;2024-03-25T13:33:49;1.15;;;0.40;;
41881;SDS011;27562;47.524;12.404;2024-03-25T13:36:16;1.17;;;0.40;;
41881;SDS011;27562;47.524;12.404;2024-03-25T13:38:42;1.27;;;0.50;;
41881;SDS011;27562;47.524;12.404;2024-03-25T13:41:08;1.25;;;0.45;;
41881;SDS011;27562;47.524;12.404;2024-03-25T13:43:33;0.70;;;0.40;;
41881;SDS011;27562;47.524;12.404;2024-03-25T13:45:59;2.70;;;0.50;;
41881;SDS011;27562;47.524;12.404;2024-03-25T13:48:25;1.92;;;0.30;;
41881;SDS011;27562;47.524;12.404;2024-03-25T13:50:53;0.73;;;0.30;;
41881;SDS011;27562;47.524;12.404;2024-03-25T13:53:19;1.13;;;0.30;;
41881;SDS011;27562;47.524;12.404;2024-03-25T13:55:46;0.52;;;0.30;;
41881;SDS011;27562;47.524;12.404;2024-03-25T13:58:11;1.83;;;0.20;;
41881;SDS011;27562;47.524;12.404;2024-03-25T14:00:38;1.20;;;0.30;;
41881;SDS011;27562;47.524;12.404;2024-03-25T14:03:04;0.82;;;0.40;;
41881;SDS011;27562;47.524;12.404;2024-03-25T14:05:29;1.25;;;0.30;;
41881;SDS011;27562;47.524;12.404;2024-03-25T14:07:55;0.35;;;0.25;;
41881;SDS011;27562;47.524;12.404;2024-03-25T14:10:23;0.63;;;0.32;;
41881;SDS011;27562;47.524;12.404;2024-03-25T14:12:49;0.90;;;0.32;;
41881;SDS011;27562;47.524;12.404;2024-03-25T14:15:15;1.40;;;0.43;;
41881;SDS011;27562;47.524;12.404;2024-03-25T14:17:40;0.77;;;0.28;;
41881;SDS011;27562;47.524;12.404;2024-03-25T14:20:06;0.60;;;0.28;;
41881;SDS011;27562;47.524;12.404;2024-03-25T14:22:33;0.75;;;0.30;;
41881;SDS011;27562;47.524;12.404;2024-03-25T14:24:59;1.20;;;0.43;;
41881;SDS011;27562;47.524;12.404;2024-03-25T14:27:25;0.90;;;0.30;;
41881;SDS011;27562;47.524;12.404;2024-03-25T14:29:51;1.38;;;0.40;;
41881;SDS011;27562;47.524;12.404;2024-03-25T14:32:20;0.85;;;0.20;;